VISIB

Not for real navigation. The accuracy of this data is not assured See disclaimer for more information



ICAO NAME COUNTRY WIND Kt GUST Kt VIS m TEMP/DEW C BARO METAR
SECO 1 0 100 21/20 29.97 SECO 181200Z 02001KT 0100 FG VV/// 21/20 Q1015 RMK A2999
MGCB Coban Guatemala 0 0 100 15/15 29.92 MGCB 181200Z 00000KT 0100 FG VV/// 15/15 QFE 873.6 APCH CLSD
MGQZ Quezaltenango Guatemala 0 0 100 10/10 29.92 MGQZ 181200Z 00000KT 0100 FG VV/// 10/10 QFE 775.2 APCH CLSD
CYYW Armstrong, Ont. Canada 0 0 200 8/0 30.11 CYYW 181200Z AUTO 00000KT 0.125SM FG OVC002 08/ A3011 RMK TD MISG SLP194
CYQW North Battleford, Sask. Canada 3 0 200 12/12 29.99 CYQW 181200Z AUTO 27003KT 0.125SM FG SCT029 12/12 A2999 RMK SLP158

Show more